Time;durP1;ratioP1;P1;durP2;ratioP2;P2;SDS_P1;SDS_P2;PMS_P1;PMS_P2;Temp;Humidity;BMP_temperature;BMP_pressure;BME280_temperature;BME280_humidity;BME280_pressure;Samples;Min_cycle;Max_cycle;Signal;HPM_P1;HPM_P2
2023/10/28 00:00:59;;;;;;;0.82;0.65;;;10.00;99.90;;;;;;5113740;28;20089;-64
2023/10/28 00:03:25;;;;;;;1.42;0.93;;;9.60;99.90;;;;;;5112935;28;20074;-61
2023/10/28 00:05:51;;;;;;;1.50;1.17;;;10.30;99.90;;;;;;5113576;28;20159;-62
2023/10/28 00:08:16;;;;;;;3.13;1.27;;;10.50;99.90;;;;;;5112847;28;20467;-62
2023/10/28 00:10:42;;;;;;;1.45;1.17;;;10.70;99.90;;;;;;5113624;28;20051;-62
2023/10/28 00:13:08;;;;;;;3.00;1.38;;;9.80;99.90;;;;;;5113108;28;20044;-62
2023/10/28 00:15:35;;;;;;;2.50;1.48;;;10.60;99.90;;;;;;5113274;28;20036;-61
2023/10/28 00:18:02;;;;;;;1.70;0.65;;;10.20;99.90;;;;;;5111400;28;20043;-61
2023/10/28 00:20:29;;;;;;;1.30;0.95;;;9.70;99.90;;;;;;5113753;28;20078;-62
2023/10/28 00:22:57;;;;;;;1.35;1.25;;;10.60;99.90;;;;;;5112705;28;20043;-63
2023/10/28 00:25:27;;;;;;;2.40;0.38;;;10.30;99.90;;;;;;5112817;28;20479;-62
2023/10/28 00:27:56;;;;;;;0.73;0.73;;;10.30;99.90;;;;;;5112916;28;20075;-62
2023/10/28 00:30:22;;;;;;;1.33;1.10;;;10.80;99.90;;;;;;5113173;28;20482;-62
2023/10/28 00:32:52;;;;;;;1.33;1.20;;;9.70;99.90;;;;;;5113017;28;20043;-62
2023/10/28 00:35:18;;;;;;;0.98;0.98;;;10.60;99.90;;;;;;5113380;27;20083;-62
2023/10/28 00:37:45;;;;;;;1.25;1.15;;;10.50;99.90;;;;;;5112628;28;20047;-61
2023/10/28 00:40:11;;;;;;;0.60;0.60;;;10.60;99.90;;;;;;5113598;28;20047;-61
2023/10/28 00:42:37;;;;;;;;;;;10.10;99.90;;;;;;5113437;28;20047;-62
2023/10/28 00:45:08;;;;;;;1.40;1.30;;;9.80;99.90;;;;;;5113304;28;20010;-63
2023/10/28 00:47:56;;;;;;;2.80;1.42;;;10.70;99.90;;;;;;5086967;28;20047;-62
2023/10/28 00:50:23;;;;;;;2.13;1.67;;;10.50;99.90;;;;;;5112889;28;20526;-61
2023/10/28 00:52:54;;;;;;;1.52;1.10;;;10.60;99.90;;;;;;5112696;28;20522;-61
2023/10/28 00:55:22;;;;;;;2.20;1.15;;;10.00;99.90;;;;;;5113162;28;20040;-62
2023/10/28 00:57:48;;;;;;;0.57;0.57;;;10.00;99.90;;;;;;5113109;27;20043;-62
2023/10/28 01:00:17;;;;;;;;;;;10.40;99.90;;;;;;5113317;28;20487;-61
2023/10/28 01:02:44;;;;;;;1.25;1.15;;;11.10;99.90;;;;;;5111322;28;19966;-62
2023/10/28 01:05:14;;;;;;;1.40;1.27;;;10.80;99.90;;;;;;5113090;28;20040;-62
2023/10/28 01:07:41;;;;;;;1.63;1.45;;;10.20;99.90;;;;;;5113281;28;20467;-62
2023/10/28 01:10:11;;;;;;;1.08;1.05;;;9.90;99.90;;;;;;5111199;28;20504;-61
2023/10/28 01:12:37;;;;;;;0.80;0.80;;;10.30;99.90;;;;;;5112635;28;20077;-62
2023/10/28 01:15:04;;;;;;;4.22;0.63;;;10.70;99.90;;;;;;5112493;28;20115;-63
2023/10/28 01:17:31;;;;;;;2.08;1.88;;;10.70;99.90;;;;;;5112600;28;20129;-62
2023/10/28 01:19:57;;;;;;;0.40;0.40;;;10.50;99.90;;;;;;5085182;28;20055;-62
2023/10/28 01:22:23;;;;;;;1.50;1.40;;;9.80;99.90;;;;;;5111899;28;20055;-64
2023/10/28 01:24:50;;;;;;;3.85;2.17;;;10.10;99.90;;;;;;5112534;28;20123;-62
2023/10/28 01:27:19;;;;;;;1.38;1.13;;;10.60;99.90;;;;;;5111861;28;20047;-62
2023/10/28 01:29:46;;;;;;;0.65;0.65;;;10.10;99.90;;;;;;5112367;28;20043;-62
2023/10/28 01:32:15;;;;;;;1.17;0.95;;;9.70;99.90;;;;;;5112168;28;20075;-61
2023/10/28 01:34:52;;;;;;;2.40;1.13;;;10.20;99.90;;;;;;5112432;28;20044;-61
2023/10/28 01:37:18;;;;;;;1.02;0.90;;;11.10;99.90;;;;;;5111795;28;20044;-61
2023/10/28 01:39:54;;;;;;;1.58;1.45;;;10.20;99.90;;;;;;5112589;28;20114;-61
2023/10/28 01:42:21;;;;;;;1.67;1.58;;;10.80;99.90;;;;;;5112701;28;20098;-62
2023/10/28 01:44:48;;;;;;;0.80;0.80;;;10.10;99.90;;;;;;5101107;28;20043;-61
2023/10/28 01:47:14;;;;;;;0.70;0.70;;;11.10;99.90;;;;;;5109877;28;20043;-63
2023/10/28 01:49:42;;;;;;;;;;;10.40;99.90;;;;;;5112527;28;20126;-62
2023/10/28 01:52:09;;;;;;;1.05;0.75;;;10.10;99.90;;;;;;5111680;28;20040;-61
2023/10/28 01:54:35;;;;;;;1.40;1.30;;;10.80;99.90;;;;;;5112214;28;20044;-62
2023/10/28 01:57:05;;;;;;;3.13;1.27;;;10.60;99.90;;;;;;5111588;28;20608;-64
2023/10/28 01:59:35;;;;;;;1.05;1.05;;;9.90;99.90;;;;;;5111971;28;20104;-62
2023/10/28 02:02:02;;;;;;;1.48;1.30;;;9.90;99.90;;;;;;5111907;28;20035;-61
2023/10/28 02:04:31;;;;;;;0.75;0.75;;;10.30;99.90;;;;;;5111597;28;20847;-61
2023/10/28 02:06:57;;;;;;;1.15;1.05;;;10.00;99.90;;;;;;5127459;27;20052;-61
2023/10/28 02:09:23;;;;;;;1.65;0.82;;;10.70;99.90;;;;;;5111705;28;20079;-61
2023/10/28 02:11:52;;;;;;;4.75;1.45;;;10.80;99.90;;;;;;5111352;27;20104;-62
2023/10/28 02:14:18;;;;;;;1.52;1.20;;;10.20;99.90;;;;;;5111443;28;20090;-66
2023/10/28 02:16:44;;;;;;;3.03;1.98;;;11.50;99.90;;;;;;5111820;28;20051;-63
2023/10/28 02:19:10;;;;;;;1.50;1.40;;;10.00;99.90;;;;;;5097851;28;20052;-63
2023/10/28 02:21:35;;;;;;;2.30;2.10;;;9.60;99.90;;;;;;5111559;28;20079;-61
2023/10/28 02:24:03;;;;;;;2.65;0.93;;;10.70;99.90;;;;;;5111188;28;20086;-61
2023/10/28 02:26:33;;;;;;;1.50;0.88;;;10.70;99.90;;;;;;5111632;28;20459;-62
2023/10/28 02:29:00;;;;;;;8.75;2.75;;;11.20;99.90;;;;;;5111396;28;20501;-61
2023/10/28 02:31:26;;;;;;;5.55;2.22;;;9.80;99.90;;;;;;5111726;28;20085;-61
2023/10/28 02:33:51;;;;;;;3.25;2.20;;;10.80;99.90;;;;;;5115134;28;20043;-61
2023/10/28 02:36:17;;;;;;;3.15;2.35;;;11.00;99.90;;;;;;5115300;28;20052;-61
2023/10/28 02:38:43;;;;;;;;;;;10.30;99.90;;;;;;5115966;28;20054;-62
2023/10/28 02:41:09;;;;;;;1.85;1.67;;;10.20;99.90;;;;;;5115884;28;20119;-64
2023/10/28 02:43:35;;;;;;;1.42;1.33;;;10.70;99.90;;;;;;5115588;28;20104;-61
2023/10/28 02:46:03;;;;;;;5.40;3.17;;;10.40;99.90;;;;;;5115721;28;20526;-61
2023/10/28 02:48:29;;;;;;;1.48;1.38;;;10.50;99.90;;;;;;5115633;28;20560;-63
2023/10/28 02:50:54;;;;;;;;;;;10.20;99.90;;;;;;5116195;28;20108;-61
2023/10/28 02:53:20;;;;;;;0.90;0.80;;;10.40;99.90;;;;;;5115091;28;19919;-61
2023/10/28 02:55:46;;;;;;;1.27;1.02;;;10.00;99.90;;;;;;5115979;28;20048;-61
2023/10/28 02:58:12;;;;;;;2.58;1.67;;;10.70;99.90;;;;;;5115521;28;20047;-61
2023/10/28 03:00:37;;;;;;;2.63;2.28;;;9.70;99.90;;;;;;5115515;28;20059;-61
2023/10/28 03:03:03;;;;;;;1.67;1.33;;;10.60;99.90;;;;;;5114917;28;20168;-62
2023/10/28 03:05:29;;;;;;;4.57;1.77;;;10.40;99.90;;;;;;5115349;28;20569;-62
2023/10/28 03:07:55;;;;;;;1.63;1.15;;;9.70;99.90;;;;;;5114662;28;20140;-63
2023/10/28 03:10:21;;;;;;;;;;;9.80;99.90;;;;;;5115532;28;20051;-61
2023/10/28 03:12:47;;;;;;;0.82;0.82;;;10.10;99.90;;;;;;5114484;28;19919;-61
2023/10/28 03:15:13;;;;;;;3.60;3.08;;;9.90;99.90;;;;;;5115003;28;20058;-61
2023/10/28 03:17:39;;;;;;;3.90;2.83;;;10.30;99.90;;;;;;5114618;28;20511;-62
2023/10/28 03:20:10;;;;;;;2.97;1.33;;;10.30;99.90;;;;;;5114957;28;20040;-62
2023/10/28 03:22:36;;;;;;;1.80;1.67;;;9.80;99.90;;;;;;5114567;28;20043;-62
2023/10/28 03:25:03;;;;;;;1.25;1.15;;;10.30;99.90;;;;;;5114799;28;20043;-62
2023/10/28 03:27:29;;;;;;;1.77;1.63;;;10.40;99.90;;;;;;5114753;28;20483;-61
2023/10/28 03:29:56;;;;;;;2.63;1.70;;;9.80;99.90;;;;;;5114539;27;20487;-62
2023/10/28 03:32:21;;;;;;;;;;;10.20;99.90;;;;;;5115247;28;20060;-62
2023/10/28 03:34:47;;;;;;;0.75;0.75;;;9.80;99.90;;;;;;5113612;28;19924;-62
2023/10/28 03:37:13;;;;;;;1.15;1.02;;;10.10;99.90;;;;;;5114252;28;20053;-62
2023/10/28 03:39:39;;;;;;;1.95;1.60;;;9.80;99.90;;;;;;5114271;28;20483;-61
2023/10/28 03:42:08;;;;;;;1.65;1.52;;;10.50;99.90;;;;;;5114309;28;20046;-62
2023/10/28 03:44:34;;;;;;;1.58;1.48;;;10.40;99.90;;;;;;5113170;28;20507;-62
2023/10/28 03:47:00;;;;;;;1.85;1.30;;;9.70;99.90;;;;;;5113928;28;20087;-63
2023/10/28 03:49:27;;;;;;;1.48;1.38;;;10.00;99.90;;;;;;5114209;28;20047;-61
2023/10/28 03:51:52;;;;;;;0.88;0.88;;;9.30;99.90;;;;;;5113890;28;20047;-62
2023/10/28 03:54:18;;;;;;;2.50;1.55;;;9.60;99.90;;;;;;5114475;28;20127;-62
2023/10/28 03:56:44;;;;;;;1.40;0.90;;;9.80;99.90;;;;;;5114334;28;20046;-62
2023/10/28 03:59:10;;;;;;;2.00;1.90;;;9.90;99.90;;;;;;5114190;28;20055;-64
2023/10/28 04:01:35;;;;;;;2.97;1.58;;;10.10;99.90;;;;;;5113878;28;20054;-62
2023/10/28 04:04:01;;;;;;;2.38;1.63;;;9.10;99.90;;;;;;5113895;28;20052;-62
2023/10/28 04:06:27;;;;;;;2.05;1.25;;;9.30;99.90;;;;;;5113793;28;20055;-62
2023/10/28 04:08:53;;;;;;;1.10;0.93;;;9.90;99.90;;;;;;5114386;28;20772;-61
2023/10/28 04:11:18;;;;;;;1.17;1.15;;;9.10;99.90;;;;;;5113539;28;20126;-62
2023/10/28 04:13:44;;;;;;;1.80;1.38;;;9.20;99.90;;;;;;5113885;28;20040;-62
2023/10/28 04:16:10;;;;;;;0.82;0.82;;;9.40;99.90;;;;;;5113582;28;20063;-61
2023/10/28 04:18:35;;;;;;;1.90;1.77;;;9.20;99.90;;;;;;5113596;28;20043;-64
2023/10/28 04:21:01;;;;;;;2.00;1.52;;;9.20;99.90;;;;;;5113148;28;20075;-62
2023/10/28 04:23:27;;;;;;;3.88;0.93;;;9.60;99.90;;;;;;5113624;28;20035;-62
2023/10/28 04:25:52;;;;;;;0.90;0.90;;;8.50;99.90;;;;;;5113584;28;20200;-61
2023/10/28 04:28:18;;;;;;;1.63;1.52;;;9.20;99.90;;;;;;5146863;27;20051;-62
2023/10/28 04:30:58;;;;;;;4.45;2.20;;;9.50;99.90;;;;;;5113492;28;20051;-61
2023/10/28 04:33:24;;;;;;;1.95;1.83;;;9.10;99.90;;;;;;5113743;28;20040;-61
2023/10/28 04:35:52;;;;;;;2.13;1.67;;;9.60;99.90;;;;;;5145972;27;20683;-63
2023/10/28 04:38:18;;;;;;;1.30;1.13;;;9.40;99.90;;;;;;5113371;28;20518;-61
2023/10/28 04:40:44;;;;;;;2.30;2.10;;;9.40;99.90;;;;;;5113141;28;20584;-61
2023/10/28 04:43:10;;;;;;;0.85;0.82;;;9.60;99.90;;;;;;5113594;28;20090;-62
2023/10/28 04:45:35;;;;;;;2.75;1.98;;;8.80;99.90;;;;;;5112835;28;20070;-63
2023/10/28 04:48:01;;;;;;;1.95;1.15;;;9.50;99.90;;;;;;5113388;28;20062;-61
2023/10/28 04:50:28;;;;;;;0.60;0.60;;;8.80;99.90;;;;;;5113466;28;20117;-61
2023/10/28 04:52:54;;;;;;;2.10;1.25;;;8.70;99.90;;;;;;5113148;28;20483;-62
2023/10/28 04:55:21;;;;;;;2.60;1.73;;;9.20;99.90;;;;;;5145714;27;20039;-62
2023/10/28 04:57:47;;;;;;;0.82;0.82;;;8.70;99.90;;;;;;5112956;28;20126;-61
2023/10/28 05:00:13;;;;;;;0.40;0.40;;;9.60;99.90;;;;;;5113050;28;20119;-61
2023/10/28 05:02:39;;;;;;;1.10;1.00;;;9.00;99.90;;;;;;5112970;28;20040;-61
2023/10/28 05:05:05;;;;;;;0.88;0.88;;;9.90;99.90;;;;;;5112277;28;20059;-62
2023/10/28 05:07:33;;;;;;;2.22;1.70;;;9.60;99.90;;;;;;5113060;28;20130;-62
2023/10/28 05:09:59;;;;;;;1.05;0.93;;;9.80;99.90;;;;;;5112646;28;20039;-61
2023/10/28 05:12:25;;;;;;;2.53;0.90;;;9.90;99.90;;;;;;5112557;28;20051;-61
2023/10/28 05:14:50;;;;;;;2.10;1.88;;;9.30;99.90;;;;;;5112444;28;20051;-62
2023/10/28 05:17:16;;;;;;;4.38;1.23;;;9.10;99.90;;;;;;5112674;28;20050;-62
2023/10/28 05:19:42;;;;;;;1.35;0.80;;;9.50;99.90;;;;;;5112743;27;20558;-61
2023/10/28 05:22:08;;;;;;;2.92;2.08;;;10.00;99.90;;;;;;5112673;28;20040;-61
2023/10/28 05:24:33;;;;;;;0.93;0.75;;;9.80;99.90;;;;;;5112293;28;20128;-62
2023/10/28 05:26:59;;;;;;;1.25;1.25;;;8.90;99.90;;;;;;5112951;28;20130;-61
2023/10/28 05:29:25;;;;;;;2.03;1.50;;;10.10;99.90;;;;;;5111214;28;20044;-62
2023/10/28 05:31:56;;;;;;;1.20;0.85;;;9.80;99.90;;;;;;5112264;28;20104;-61
2023/10/28 05:34:23;;;;;;;1.52;1.15;;;9.00;99.90;;;;;;5112073;28;20079;-63
2023/10/28 05:36:49;;;;;;;2.20;1.40;;;10.00;99.90;;;;;;5112293;28;20051;-61
2023/10/28 05:39:15;;;;;;;;;;;9.40;99.90;;;;;;5111823;27;20043;-61
2023/10/28 05:41:41;;;;;;;2.17;1.40;;;10.10;99.90;;;;;;5112215;28;19924;-61
2023/10/28 05:44:06;;;;;;;3.75;1.65;;;10.20;99.90;;;;;;5111958;28;20040;-61
2023/10/28 05:46:32;;;;;;;1.45;1.30;;;9.20;99.90;;;;;;5112059;28;20066;-63
2023/10/28 05:48:58;;;;;;;1.90;1.10;;;9.00;99.90;;;;;;5111679;28;20076;-62
2023/10/28 05:51:24;;;;;;;1.10;0.93;;;9.50;99.90;;;;;;5112009;28;20055;-63
2023/10/28 05:53:49;;;;;;;2.00;1.75;;;9.30;99.90;;;;;;5112182;28;20476;-62
2023/10/28 05:56:17;;;;;;;2.25;1.42;;;9.70;99.90;;;;;;5111686;28;20182;-62
2023/10/28 05:58:42;;;;;;;1.20;1.10;;;10.20;99.90;;;;;;5111773;28;20039;-61
2023/10/28 06:01:08;;;;;;;1.05;0.98;;;9.10;99.90;;;;;;5111789;28;20054;-61
2023/10/28 06:03:34;;;;;;;0.80;0.70;;;10.30;99.90;;;;;;5111481;28;20150;-61
2023/10/28 06:05:59;;;;;;;1.77;1.45;;;10.20;99.90;;;;;;5111629;28;20056;-63
2023/10/28 06:08:25;;;;;;;3.15;2.40;;;9.40;99.90;;;;;;5111380;28;20114;-62
2023/10/28 06:10:52;;;;;;;2.08;1.45;;;9.10;99.90;;;;;;5111793;28;20123;-61
2023/10/28 06:13:18;;;;;;;5.57;2.70;;;9.60;99.90;;;;;;5111143;28;20477;-61
2023/10/28 06:15:44;;;;;;;1.60;1.33;;;9.30;99.90;;;;;;5109719;28;20067;-61
2023/10/28 06:18:11;;;;;;;3.92;2.08;;;9.80;99.90;;;;;;5108204;28;20050;-61
2023/10/28 06:20:37;;;;;;;1.70;1.25;;;9.60;99.90;;;;;;5093480;28;20119;-61
2023/10/28 06:23:06;;;;;;;;;;;10.30;99.90;;;;;;5104133;28;20163;-62
2023/10/28 06:25:34;;;;;;;1.00;0.90;;;9.50;99.90;;;;;;5100536;28;19923;-62
2023/10/28 06:28:01;;;;;;;2.55;1.73;;;9.20;99.90;;;;;;5092482;28;20117;-64
2023/10/28 06:30:27;;;;;;;5.28;1.27;;;11.10;99.90;;;;;;5089295;28;20056;-63
2023/10/28 06:32:52;;;;;;;2.00;1.45;;;10.50;99.90;;;;;;5104242;28;20131;-61
2023/10/28 06:35:18;;;;;;;0.90;0.90;;;9.20;99.90;;;;;;5102133;28;20118;-61
2023/10/28 06:37:44;;;;;;;;;;;10.00;99.90;;;;;;5106999;28;20051;-61
2023/10/28 06:40:10;;;;;;;4.28;2.65;;;9.50;99.90;;;;;;5103416;28;19924;-62
2023/10/28 06:42:39;;;;;;;2.42;1.75;;;9.80;99.90;;;;;;5109398;28;20506;-62
2023/10/28 06:45:05;;;;;;;1.40;1.33;;;10.10;99.90;;;;;;5111033;28;20035;-61
2023/10/28 06:47:33;;;;;;;0.57;0.52;;;9.70;99.90;;;;;;5111146;28;20035;-61
2023/10/28 06:50:00;;;;;;;1.95;1.80;;;9.50;99.90;;;;;;5111760;28;20399;-62
2023/10/28 06:52:26;;;;;;;1.80;1.35;;;9.80;99.90;;;;;;5111432;28;20100;-61
2023/10/28 06:54:52;;;;;;;;;;;10.40;99.90;;;;;;5111603;28;20065;-63
2023/10/28 06:57:18;;;;;;;1.75;1.02;;;9.80;99.90;;;;;;5111081;28;20376;-62
2023/10/28 06:59:43;;;;;;;1.23;1.15;;;9.80;99.90;;;;;;5110477;28;20051;-64
2023/10/28 07:02:10;;;;;;;3.13;1.55;;;9.70;99.90;;;;;;5111118;28;20040;-62
2023/10/28 07:04:36;;;;;;;0.65;0.65;;;9.80;99.90;;;;;;5104966;28;20057;-61
2023/10/28 07:07:02;;;;;;;3.08;1.63;;;9.90;99.90;;;;;;5090894;28;20140;-60
2023/10/28 07:09:27;;;;;;;0.95;0.95;;;10.20;99.90;;;;;;5104399;28;20052;-62
2023/10/28 07:11:53;;;;;;;1.60;1.35;;;10.10;99.90;;;;;;5110784;28;20050;-61
2023/10/28 07:14:19;;;;;;;2.63;1.95;;;10.70;99.90;;;;;;5104334;28;20040;-62
2023/10/28 07:16:44;;;;;;;4.63;0.93;;;10.40;99.90;;;;;;5110986;28;20052;-64
2023/10/28 07:19:12;;;;;;;1.38;1.25;;;9.40;99.90;;;;;;5110554;28;20048;-64
2023/10/28 07:21:37;;;;;;;0.55;0.55;;;9.80;99.90;;;;;;5110847;27;20054;-62
2023/10/28 07:24:09;;;;;;;0.73;0.73;;;9.90;99.90;;;;;;5107953;28;20035;-62
2023/10/28 07:26:35;;;;;;;9.45;1.98;;;10.20;99.90;;;;;;5112640;28;20410;-62
2023/10/28 07:29:00;;;;;;;2.20;1.42;;;10.70;99.90;;;;;;5108994;28;20048;-62
2023/10/28 07:31:26;;;;;;;1.02;1.00;;;9.70;99.90;;;;;;5113933;28;20176;-63
2023/10/28 07:33:52;;;;;;;1.30;1.20;;;10.00;99.90;;;;;;5108601;28;20051;-61
2023/10/28 07:36:17;;;;;;;3.33;1.95;;;10.30;99.90;;;;;;5114060;28;20128;-62
2023/10/28 07:38:43;;;;;;;0.85;0.85;;;11.10;99.90;;;;;;5109915;28;20048;-61
2023/10/28 07:41:09;;;;;;;1.05;1.05;;;10.10;99.90;;;;;;5113814;28;20039;-61
2023/10/28 07:43:36;;;;;;;1.40;1.27;;;10.30;99.90;;;;;;5111228;28;20160;-61
2023/10/28 07:46:01;;;;;;;1.67;1.25;;;10.60;99.90;;;;;;5103681;28;20048;-60
2023/10/28 07:48:28;;;;;;;1.73;1.63;;;10.60;99.90;;;;;;5092749;28;20048;-62
2023/10/28 07:50:54;;;;;;;0.55;0.55;;;10.30;99.90;;;;;;5100515;28;20442;-60
2023/10/28 07:53:20;;;;;;;;;;;11.20;99.90;;;;;;5105041;28;20400;-61
2023/10/28 07:55:45;;;;;;;0.35;0.35;;;11.10;99.90;;;;;;5106210;28;19924;-61
2023/10/28 07:58:11;;;;;;;1.00;0.93;;;11.20;99.90;;;;;;5105413;28;20521;-62
2023/10/28 08:00:37;;;;;;;1.83;1.17;;;11.30;99.90;;;;;;5100760;28;20105;-61
2023/10/28 08:03:04;;;;;;;2.25;2.08;;;11.30;99.90;;;;;;5107531;28;20130;-61
2023/10/28 08:05:29;;;;;;;;;;;11.40;99.90;;;;;;5112388;27;20500;-60
2023/10/28 08:07:55;;;;;;;1.35;1.25;;;11.20;99.90;;;;;;5107372;28;19920;-61
2023/10/28 08:10:24;;;;;;;0.30;0.30;;;10.70;99.90;;;;;;5113118;28;20036;-61
2023/10/28 08:12:51;;;;;;;0.88;0.88;;;10.90;99.90;;;;;;5101825;28;20051;-60
2023/10/28 08:15:19;;;;;;;0.65;0.63;;;11.00;99.90;;;;;;5101511;28;20047;-62
2023/10/28 08:17:45;;;;;;;0.38;0.38;;;11.30;99.90;;;;;;5113130;28;20083;-61
2023/10/28 08:20:13;;;;;;;;;;;11.00;99.90;;;;;;5103615;28;20109;-61
2023/10/28 08:22:40;;;;;;;0.85;0.70;;;11.50;99.90;;;;;;5112653;28;19930;-61
2023/10/28 08:25:06;;;;;;;0.88;0.85;;;11.60;99.90;;;;;;5104989;28;20047;-61
2023/10/28 08:27:34;;;;;;;;;;;10.90;99.90;;;;;;5112763;28;20048;-61
2023/10/28 08:30:01;;;;;;;0.70;0.70;;;11.60;99.90;;;;;;5094597;28;20355;-61
2023/10/28 08:32:27;;;;;;;0.85;0.85;;;11.50;99.90;;;;;;5098490;28;20043;-61
2023/10/28 08:34:54;;;;;;;0.20;0.20;;;11.90;99.90;;;;;;5107843;28;20040;-63
2023/10/28 08:37:21;;;;;;;0.75;0.75;;;11.70;99.90;;;;;;5112177;28;20048;-60
2023/10/28 08:39:47;;;;;;;0.85;0.77;;;12.10;99.90;;;;;;5109073;28;20495;-62
2023/10/28 08:42:13;;;;;;;1.33;0.73;;;11.80;99.90;;;;;;5103557;28;20047;-61
2023/10/28 08:44:41;;;;;;;0.68;0.68;;;11.80;99.90;;;;;;5109725;28;20060;-62
2023/10/28 08:47:06;;;;;;;0.40;0.40;;;11.30;99.90;;;;;;5110143;28;20423;-62
2023/10/28 08:49:43;;;;;;;0.63;0.63;;;11.70;99.90;;;;;;5108631;28;20176;-61
2023/10/28 08:52:11;;;;;;;2.03;0.82;;;11.40;99.90;;;;;;5082537;28;20051;-64
2023/10/28 08:54:38;;;;;;;0.68;0.68;;;11.50;99.90;;;;;;5093809;28;20036;-62
2023/10/28 08:57:04;;;;;;;0.75;0.50;;;12.10;99.90;;;;;;5110439;28;20048;-63
2023/10/28 08:59:30;;;;;;;0.70;0.70;;;11.60;99.90;;;;;;5110274;28;20495;-62
2023/10/28 09:01:58;;;;;;;0.47;0.47;;;11.60;99.90;;;;;;5093205;28;20539;-63
2023/10/28 09:04:24;;;;;;;0.25;0.25;;;12.10;99.90;;;;;;5110551;28;20051;-64
2023/10/28 09:06:54;;;;;;;0.40;0.40;;;12.20;99.90;;;;;;5111830;28;20055;-63
2023/10/28 09:09:25;;;;;;;0.75;0.60;;;12.10;99.90;;;;;;5112751;28;20185;-63
2023/10/28 09:11:56;;;;;;;0.32;0.32;;;12.20;99.90;;;;;;5111692;28;20039;-62
2023/10/28 09:14:24;;;;;;;1.42;1.33;;;12.60;99.90;;;;;;5112253;28;20051;-62
2023/10/28 09:16:50;;;;;;;1.02;0.63;;;12.10;99.90;;;;;;5112195;28;20071;-63
2023/10/28 09:19:21;;;;;;;1.20;1.00;;;12.30;99.90;;;;;;5111674;28;20065;-62
2023/10/28 09:21:51;;;;;;;0.50;0.50;;;12.00;99.90;;;;;;5112201;28;20687;-62
2023/10/28 09:24:17;;;;;;;0.45;0.45;;;12.30;99.90;;;;;;5111695;28;20128;-62
2023/10/28 09:26:43;;;;;;;0.52;0.52;;;11.90;99.90;;;;;;5112260;28;20127;-62
2023/10/28 09:29:09;;;;;;;0.98;0.52;;;12.10;99.90;;;;;;5111923;28;20493;-62
2023/10/28 09:31:35;;;;;;;0.65;0.57;;;11.80;99.90;;;;;;5111740;28;20047;-62
2023/10/28 09:34:01;;;;;;;2.13;1.13;;;12.00;99.90;;;;;;5110054;28;20058;-62
2023/10/28 09:36:29;;;;;;;0.65;0.65;;;11.70;99.90;;;;;;5100678;28;20384;-65
2023/10/28 09:38:56;;;;;;;0.73;0.50;;;11.90;99.90;;;;;;5097930;28;20487;-62
2023/10/28 09:41:21;;;;;;;;;;;12.10;99.90;;;;;;5108813;28;20142;-63
2023/10/28 09:43:47;;;;;;;3.92;0.55;;;11.70;99.90;;;;;;5110079;28;20023;-63
2023/10/28 09:46:24;;;;;;;0.98;0.77;;;11.80;99.90;;;;;;5111545;28;20112;-62
2023/10/28 09:48:51;;;;;;;0.55;0.40;;;12.30;99.90;;;;;;5111546;28;20054;-62
2023/10/28 09:51:24;;;;;;;0.35;0.35;;;12.10;99.90;;;;;;5111566;28;20162;-62
2023/10/28 09:53:58;;;;;;;2.78;0.70;;;11.80;99.90;;;;;;5111295;28;20571;-62
2023/10/28 09:56:33;;;;;;;0.30;0.30;;;11.50;99.90;;;;;;5111750;28;20048;-63
2023/10/28 09:59:06;;;;;;;0.40;0.40;;;11.80;99.90;;;;;;5110164;28;20180;-64
2023/10/28 10:01:42;;;;;;;1.83;0.55;;;11.90;99.90;;;;;;5110961;28;20068;-62
2023/10/28 10:04:16;;;;;;;0.80;0.80;;;11.70;99.90;;;;;;5111399;28;20059;-63
2023/10/28 10:06:42;;;;;;;0.60;0.60;;;11.90;99.90;;;;;;5110930;28;20286;-62
2023/10/28 10:09:12;;;;;;;;;;;11.80;99.90;;;;;;5111949;28;20139;-65
2023/10/28 10:11:42;;;;;;;0.22;0.22;;;12.00;99.90;;;;;;5091153;28;20364;-62
2023/10/28 10:14:12;;;;;;;0.30;0.30;;;11.70;99.90;;;;;;5083700;28;20048;-62
2023/10/28 10:16:52;;;;;;;0.68;0.63;;;11.70;99.90;;;;;;5098891;28;20097;-62
2023/10/28 10:19:24;;;;;;;0.45;0.45;;;12.10;99.90;;;;;;5110843;28;20054;-62
2023/10/28 10:21:51;;;;;;;0.30;0.30;;;12.30;99.90;;;;;;5102222;28;20060;-62
2023/10/28 10:24:22;;;;;;;0.77;0.77;;;11.90;99.90;;;;;;5105978;28;20046;-62
2023/10/28 10:26:58;;;;;;;0.30;0.30;;;12.10;99.90;;;;;;5102489;28;20066;-62
2023/10/28 10:29:26;;;;;;;0.47;0.47;;;11.50;99.90;;;;;;5108091;28;20055;-62
2023/10/28 10:31:53;;;;;;;0.30;0.30;;;12.00;99.90;;;;;;5102644;28;20141;-62
2023/10/28 10:34:37;;;;;;;1.90;0.45;;;11.80;99.90;;;;;;5108825;28;20387;-62
2023/10/28 10:37:04;;;;;;;2.55;0.60;;;11.70;99.90;;;;;;5102016;28;20058;-63
2023/10/28 10:39:46;;;;;;;1.80;0.85;;;11.90;99.90;;;;;;5110635;28;20475;-62
2023/10/28 10:42:12;;;;;;;0.38;0.38;;;11.80;99.90;;;;;;5102882;28;20752;-62
2023/10/28 10:44:39;;;;;;;0.47;0.35;;;11.80;99.90;;;;;;5108779;28;20043;-63
2023/10/28 10:47:08;;;;;;;0.60;0.60;;;11.80;99.90;;;;;;5109827;28;20048;-64
2023/10/28 10:49:35;;;;;;;0.25;0.25;;;11.90;99.90;;;;;;5092231;28;20054;-64
2023/10/28 10:52:04;;;;;;;0.47;0.47;;;12.00;99.90;;;;;;5110703;28;20429;-63
2023/10/28 10:54:35;;;;;;;3.72;0.68;;;12.00;99.90;;;;;;5103055;28;20044;-63
2023/10/28 10:57:01;;;;;;;0.52;0.50;;;12.00;99.90;;;;;;5112181;28;20422;-63
2023/10/28 10:59:35;;;;;;;0.80;0.60;;;12.30;99.90;;;;;;5114472;28;20044;-62
2023/10/28 11:02:02;;;;;;;0.60;0.60;;;12.00;99.90;;;;;;5112710;28;20079;-62
2023/10/28 11:04:34;;;;;;;0.45;0.45;;;12.00;99.90;;;;;;5114461;28;20112;-62
2023/10/28 11:07:01;;;;;;;0.50;0.50;;;12.60;99.90;;;;;;5114669;28;20051;-62
2023/10/28 11:09:28;;;;;;;0.98;0.65;;;12.10;99.90;;;;;;5114558;28;20056;-63
2023/10/28 11:11:54;;;;;;;1.35;0.47;;;12.30;99.90;;;;;;5087861;28;20043;-62
2023/10/28 11:14:19;;;;;;;0.17;0.17;;;11.80;99.90;;;;;;5114014;28;20061;-67
2023/10/28 11:16:46;;;;;;;0.20;0.20;;;12.20;99.90;;;;;;5148085;27;20040;-62
2023/10/28 11:19:12;;;;;;;1.02;0.93;;;12.40;99.90;;;;;;5114033;28;20126;-62
2023/10/28 11:21:41;;;;;;;0.50;0.50;;;12.50;99.90;;;;;;5114762;28;20127;-63
2023/10/28 11:24:14;;;;;;;0.45;0.45;;;12.40;99.90;;;;;;5114132;28;20471;-62
2023/10/28 11:26:40;;;;;;;1.90;0.63;;;12.50;99.90;;;;;;5102479;28;20047;-62
2023/10/28 11:29:06;;;;;;;0.15;0.13;;;12.30;99.90;;;;;;5114029;28;20048;-63
2023/10/28 11:31:33;;;;;;;0.20;0.20;;;12.80;99.90;;;;;;5114442;28;20046;-62
2023/10/28 11:34:00;;;;;;;0.28;0.28;;;12.20;99.90;;;;;;5113489;28;20047;-62
2023/10/28 11:36:26;;;;;;;0.40;0.40;;;12.80;99.90;;;;;;5114292;28;20398;-63
2023/10/28 11:38:54;;;;;;;0.65;0.65;;;12.40;99.90;;;;;;5113811;28;20064;-63
2023/10/28 11:41:21;;;;;;;0.75;0.70;;;12.60;99.90;;;;;;5114143;28;20048;-62
2023/10/28 11:43:53;;;;;;;;;;;12.80;99.90;;;;;;5112367;28;20055;-63
2023/10/28 11:46:19;;;;;;;1.23;0.70;;;12.60;99.90;;;;;;5104078;28;20640;-62
2023/10/28 11:48:46;;;;;;;0.22;0.22;;;12.90;99.90;;;;;;5114270;28;20051;-62
2023/10/28 11:51:15;;;;;;;1.10;0.70;;;12.60;99.90;;;;;;5114336;28;20411;-62
2023/10/28 11:53:44;;;;;;;0.20;0.20;;;12.60;99.90;;;;;;5114162;28;20618;-63
2023/10/28 11:56:11;;;;;;;0.43;0.43;;;12.30;99.90;;;;;;5114478;28;20433;-62
2023/10/28 11:58:36;;;;;;;;;;;12.40;99.90;;;;;;5114408;28;20058;-63
2023/10/28 12:01:02;;;;;;;1.10;0.55;;;12.60;99.90;;;;;;5113667;28;19920;-62
2023/10/28 12:03:28;;;;;;;0.30;0.22;;;12.70;99.90;;;;;;5113393;28;20044;-62
2023/10/28 12:05:53;;;;;;;;;;;12.70;99.90;;;;;;5113185;28;20131;-61
2023/10/28 12:08:19;;;;;;;0.30;0.30;;;12.60;99.90;;;;;;5113545;28;19924;-63
2023/10/28 12:10:45;;;;;;;;;;;12.60;99.90;;;;;;5114272;28;20101;-62
2023/10/28 12:13:15;;;;;;;0.40;0.40;;;12.60;99.90;;;;;;5113748;28;19930;-63
2023/10/28 12:15:41;;;;;;;0.63;0.28;;;12.40;99.90;;;;;;5114059;28;20059;-62
2023/10/28 12:18:07;;;;;;;0.30;0.30;;;12.40;99.90;;;;;;5113380;28;20047;-62
2023/10/28 12:20:33;;;;;;;2.28;0.73;;;12.60;99.90;;;;;;5113708;28;20035;-62
2023/10/28 12:22:59;;;;;;;0.22;0.22;;;12.70;99.90;;;;;;5112906;28;20376;-62
2023/10/28 12:25:25;;;;;;;;;;;12.60;99.90;;;;;;5114200;28;20039;-62
2023/10/28 12:27:51;;;;;;;0.98;0.57;;;12.70;99.90;;;;;;5113513;28;19927;-62
2023/10/28 12:30:18;;;;;;;9.32;0.45;;;12.40;99.90;;;;;;5114127;28;20149;-62
2023/10/28 12:32:46;;;;;;;0.30;0.30;;;12.50;99.90;;;;;;5113218;28;20047;-62
2023/10/28 12:35:13;;;;;;;0.20;0.20;;;12.60;99.90;;;;;;5113710;28;20047;-64
2023/10/28 12:37:40;;;;;;;0.43;0.43;;;12.90;99.90;;;;;;5112801;27;20080;-62
2023/10/28 12:40:06;;;;;;;0.13;0.13;;;13.40;99.90;;;;;;5113628;28;20498;-63
2023/10/28 12:42:36;;;;;;;0.30;0.30;;;13.40;99.90;;;;;;5113083;28;20066;-63
2023/10/28 12:45:06;;;;;;;1.45;0.70;;;13.20;99.90;;;;;;5113017;28;20116;-63
2023/10/28 12:47:32;;;;;;;0.63;0.40;;;13.50;99.90;;;;;;5113131;28;20050;-64
2023/10/28 12:49:58;;;;;;;0.30;0.30;;;13.30;99.90;;;;;;5113676;28;20140;-62
2023/10/28 12:52:24;;;;;;;0.35;0.35;;;13.50;99.90;;;;;;5112721;28;20075;-62
2023/10/28 12:54:50;;;;;;;0.63;0.63;;;13.30;99.90;;;;;;5113408;28;20073;-62